Altair, TX (77412)

7:18 AM CDT on July 27, 2016 (GMT -0500)
Winslow Hills, Alleyton | | Change Station

Elev 256 ft 29.71 °N, 96.39 °W | Updated 1 second ago

Light Drizzle
Light Drizzle
76.5 °F
Feels Like 76 °F
N
0.0
Wind Variable Wind from SSW
Gusts 0.0 mph

Today
High -- | Low -- °F
--% Chance of Precip.
Yesterday
High -- | Low -- °F
Precip. -- in
Pressure 29.95 in
Visibility 10.0 miles
Clouds Clear
Heat Index 76 °F
Dew Point 76 °F
Humidity 97%
Rainfall 0.00 in
Snow Depth Not available.
6:43 AM 8:21 PM
Last Quarter, 44% visible
METAR KARM 271155Z AUTO 00000KT 10SM -DZ CLR 24/22 A2995 RMK AO2 LTG DSNT SE 70021 T02410220 10253 20240
Pressure 29.95 in
Visibility 10.0 miles
Clouds Clear
Heat Index 76 °F
Dew Point 76 °F
Humidity 97%
Rainfall 0.00 in
Snow Depth Not available.
6:43 AM 8:21 PM
Last Quarter, 44% visible
METAR KARM 271155Z AUTO 00000KT 10SM -DZ CLR 24/22 A2995 RMK AO2 LTG DSNT SE 70021 T02410220 10253 20240

10-Day Weather Forecast

Almanac

Astronomy

Jul. 27, 2016 Rise Set
Actual Time
Civil Twilight
Nautical Twilight
Astronomical Twilight
Moon
Length of Visible Light
Length of Day
Tomorrow will be .
, % of the Moon is Illuminated

Today's Extremes

State Highs State Lows

Community

WunderPhotos

Upload Photos

1,927,836 photos uploaded!

WunderBlog® & News

Nearby

Air Quality

  Air Quality AQ Index Pollutant
Not available.

Snow Depth

Station Depth Elevation

Earthquake Activity

City Distance Mag. Time & Date
Minimum magnitude displayed is 2.5.

Coastal Water Temperatures

Place Temperature

Stations

Nearby Weather Stations

Station Location Temp. Windchill Dew Point Humidity Wind Precip. Elev Updated Type
                   

Watches & Warnings

There are currently no watches in effect.